createdAt,value
2022-10-17T00:00:42.555Z,65.79
2022-10-17T00:01:45.439Z,65.78
2022-10-17T00:02:48.539Z,65.75
2022-10-17T00:03:51.487Z,65.79
2022-10-17T00:04:54.434Z,65.80
2022-10-17T00:05:58.386Z,65.85
2022-10-17T00:07:01.530Z,65.70
2022-10-17T00:08:04.681Z,65.72
2022-10-17T00:09:07.658Z,65.71
2022-10-17T00:10:11.560Z,65.67
2022-10-17T00:11:18.095Z,65.72
2022-10-17T00:12:21.085Z,65.66
2022-10-17T00:13:25.405Z,65.71
2022-10-17T00:14:28.541Z,65.69
2022-10-17T00:15:32.535Z,65.66
2022-10-17T00:16:37.111Z,65.64
2022-10-17T00:17:39.949Z,65.66
2022-10-17T00:18:42.887Z,65.66
2022-10-17T00:19:45.831Z,65.68
2022-10-17T00:20:48.838Z,65.67
2022-10-17T00:21:51.996Z,65.62
2022-10-17T00:22:55.174Z,65.66
2022-10-17T00:24:00.064Z,65.67
2022-10-17T00:25:03.650Z,65.70
2022-10-17T00:26:06.891Z,65.68
2022-10-17T00:27:09.850Z,65.68
2022-10-17T00:28:14.480Z,65.81
2022-10-17T00:29:17.577Z,65.83
2022-10-17T00:30:22.564Z,65.84
2022-10-17T00:31:25.532Z,65.83
2022-10-17T00:32:28.806Z,65.81
2022-10-17T00:33:33.559Z,65.81
2022-10-17T00:34:36.488Z,65.92
2022-10-17T00:35:39.432Z,65.84
2022-10-17T00:36:42.643Z,65.90
2022-10-17T00:37:45.723Z,65.82
2022-10-17T00:38:51.722Z,65.82
2022-10-17T00:39:54.892Z,65.81
2022-10-17T00:40:58.098Z,65.84
2022-10-17T00:42:01.099Z,65.87
2022-10-17T00:43:04.164Z,65.86
2022-10-17T00:44:33.459Z,65.74
2022-10-17T00:45:37.650Z,65.78
2022-10-17T00:46:40.805Z,65.79
2022-10-17T00:47:48.577Z,65.89
2022-10-17T00:48:54.386Z,65.84
2022-10-17T00:49:58.308Z,65.92
2022-10-17T00:51:03.086Z,65.88
2022-10-17T00:52:18.723Z,65.97
2022-10-17T00:53:21.928Z,65.95
2022-10-17T00:54:34.258Z,65.97
2022-10-17T00:55:50.143Z,65.88
2022-10-17T00:56:54.351Z,66.00
2022-10-17T00:57:59.711Z,65.96
2022-10-17T00:59:03.062Z,65.86
2022-10-17T01:00:09.574Z,65.92
2022-10-17T01:01:12.617Z,65.78
2022-10-17T01:02:18.621Z,65.76
2022-10-17T01:03:23.611Z,65.80
2022-10-17T01:04:26.906Z,65.83
2022-10-17T01:05:30.188Z,65.85
2022-10-17T01:06:33.221Z,65.85
2022-10-17T01:07:37.847Z,65.86
2022-10-17T01:08:40.837Z,65.89
2022-10-17T01:09:45.890Z,65.88
2022-10-17T01:10:55.333Z,65.88
2022-10-17T01:12:05.701Z,66.02
2022-10-17T01:13:22.569Z,65.96
2022-10-17T01:14:34.518Z,65.87
2022-10-17T01:15:46.876Z,65.87
2022-10-17T01:16:59.413Z,66.06
2022-10-17T01:18:34.362Z,66.06
2022-10-17T01:20:01.139Z,66.07
2022-10-17T01:21:22.949Z,66.07
2022-10-17T01:22:47.458Z,66.06
2022-10-17T01:23:56.873Z,66.06
2022-10-17T01:25:29.715Z,66.20
2022-10-17T01:26:57.077Z,66.09
2022-10-17T01:28:28.487Z,66.21
2022-10-17T01:29:53.841Z,66.13
2022-10-17T01:31:00.471Z,66.13
2022-10-17T01:32:38.033Z,66.13
2022-10-17T01:33:47.471Z,66.18
2022-10-17T01:35:06.216Z,66.11
2022-10-17T01:36:34.077Z,66.09
2022-10-17T01:37:57.469Z,66.03
2022-10-17T01:39:20.579Z,66.08
2022-10-17T01:40:30.677Z,65.98
2022-10-17T01:41:40.968Z,66.00
2022-10-17T01:42:53.221Z,66.15
2022-10-17T01:44:02.813Z,66.09
2022-10-17T01:45:18.496Z,66.09
2022-10-17T01:46:33.922Z,66.08
2022-10-17T01:47:38.058Z,66.07
2022-10-17T01:48:44.514Z,66.07
2022-10-17T01:49:50.943Z,66.14
2022-10-17T01:51:00.587Z,66.15
2022-10-17T01:52:10.141Z,66.09
2022-10-17T01:53:26.000Z,65.96
2022-10-17T01:54:32.588Z,65.96
2022-10-17T01:55:39.289Z,65.88
2022-10-17T01:56:43.885Z,65.88
2022-10-17T01:57:53.231Z,66.01
2022-10-17T01:59:03.025Z,65.94
2022-10-17T02:00:10.090Z,65.95
2022-10-17T02:01:18.582Z,65.91
2022-10-17T02:02:24.024Z,65.95
2022-10-17T02:03:28.335Z,65.89
2022-10-17T02:04:31.332Z,65.94
2022-10-17T02:05:37.744Z,65.89
2022-10-17T02:06:40.967Z,65.84
2022-10-17T02:07:45.751Z,65.84
2022-10-17T02:08:50.495Z,65.87
2022-10-17T02:09:53.506Z,65.87
2022-10-17T02:11:06.349Z,65.79
2022-10-17T02:12:29.723Z,65.75
2022-10-17T02:14:06.498Z,65.81
2022-10-17T02:15:15.875Z,65.73
2022-10-17T02:16:37.806Z,65.72
2022-10-17T02:17:50.056Z,65.71
2022-10-17T02:19:00.606Z,65.86
2022-10-17T02:20:19.578Z,65.93
2022-10-17T02:21:26.215Z,65.93
2022-10-17T02:22:38.580Z,66.02
2022-10-17T02:23:54.946Z,65.84
2022-10-17T02:25:30.124Z,65.83
2022-10-17T02:26:39.804Z,65.82
2022-10-17T02:27:52.605Z,65.93
2022-10-17T02:29:17.590Z,65.96
2022-10-17T02:30:36.220Z,66.05
2022-10-17T02:31:43.520Z,66.12
2022-10-17T02:32:56.217Z,66.11
2022-10-17T02:34:02.782Z,66.00
2022-10-17T02:35:09.335Z,65.98
2022-10-17T02:36:16.456Z,65.99
2022-10-17T02:37:23.809Z,66.00
2022-10-17T02:38:28.986Z,65.95
2022-10-17T02:39:34.066Z,65.91
2022-10-17T02:40:39.298Z,65.76
2022-10-17T02:41:44.653Z,65.71
2022-10-17T02:42:49.506Z,65.65
2022-10-17T02:43:53.197Z,65.65
2022-10-17T02:45:01.390Z,65.67
2022-10-17T02:46:07.486Z,65.65
2022-10-17T02:47:29.315Z,65.72
2022-10-17T02:49:51.292Z,66.02
2022-10-17T02:50:58.566Z,66.10
2022-10-17T02:52:26.393Z,66.12
2022-10-17T02:53:41.937Z,66.15
2022-10-17T02:54:48.580Z,66.15
2022-10-17T02:55:55.335Z,66.20
2022-10-17T02:57:18.549Z,66.18
2022-10-17T02:58:28.459Z,66.23
2022-10-17T03:00:40.332Z,66.08
2022-10-17T03:01:43.855Z,66.07
2022-10-17T03:02:49.634Z,66.14
2022-10-17T03:04:11.302Z,66.00
2022-10-17T03:05:17.810Z,66.01
2022-10-17T03:06:20.914Z,66.01
2022-10-17T03:07:23.912Z,65.94
2022-10-17T03:08:27.042Z,65.92
2022-10-17T03:09:31.570Z,65.81
2022-10-17T03:10:34.629Z,65.77
2022-10-17T03:11:37.709Z,65.73
2022-10-17T03:12:42.016Z,65.67
2022-10-17T03:13:45.195Z,65.64
2022-10-17T03:14:48.147Z,65.65
2022-10-17T03:15:52.544Z,65.64
2022-10-17T03:16:55.720Z,65.51
2022-10-17T03:17:58.867Z,65.50
2022-10-17T03:19:02.053Z,65.48
2022-10-17T03:20:06.669Z,65.43
2022-10-17T03:21:09.731Z,65.37
2022-10-17T03:22:12.701Z,65.33
2022-10-17T03:23:15.786Z,65.32
2022-10-17T03:24:18.892Z,65.29
2022-10-17T03:25:22.173Z,65.29
2022-10-17T03:26:25.514Z,65.22
2022-10-17T03:27:29.183Z,65.17
2022-10-17T03:28:32.517Z,65.19
2022-10-17T03:29:35.439Z,65.15
2022-10-17T03:30:39.223Z,65.22
2022-10-17T03:31:42.304Z,65.10
2022-10-17T03:32:46.178Z,65.16
2022-10-17T03:33:49.334Z,65.06
2022-10-17T03:34:52.432Z,65.13
2022-10-17T03:35:55.484Z,65.04
2022-10-17T03:36:58.684Z,64.99
2022-10-17T03:38:02.669Z,64.93
2022-10-17T03:39:05.798Z,64.94
2022-10-17T03:40:09.675Z,64.87
2022-10-17T03:41:13.110Z,64.95
2022-10-17T03:42:16.189Z,64.94
2022-10-17T03:43:19.888Z,64.78
2022-10-17T03:44:23.711Z,64.83
2022-10-17T03:45:26.799Z,64.57
2022-10-17T03:46:29.871Z,64.38
2022-10-17T03:47:33.631Z,64.27
2022-10-17T03:48:37.380Z,64.21
2022-10-17T03:49:41.278Z,64.11
2022-10-17T03:50:44.363Z,64.10
2022-10-17T03:51:47.429Z,64.14
2022-10-17T03:52:50.790Z,64.06
2022-10-17T03:53:53.769Z,64.13
2022-10-17T03:54:57.537Z,64.19
2022-10-17T03:56:18.071Z,64.30
2022-10-17T03:57:23.079Z,64.46
2022-10-17T03:58:26.194Z,64.44
2022-10-17T03:59:29.613Z,64.48
2022-10-17T04:00:37.217Z,64.38
2022-10-17T04:01:41.206Z,64.36
2022-10-17T04:02:44.409Z,64.36
2022-10-17T04:03:54.711Z,64.42
2022-10-17T04:04:57.831Z,64.44
2022-10-17T04:06:01.930Z,64.47
2022-10-17T04:07:05.015Z,64.52
2022-10-17T04:08:09.280Z,64.61
2022-10-17T04:09:30.560Z,64.54
2022-10-17T04:10:38.471Z,64.68
2022-10-17T04:11:41.550Z,64.81
2022-10-17T04:12:44.833Z,64.85
2022-10-17T04:13:47.939Z,65.02
2022-10-17T04:14:50.895Z,65.01
2022-10-17T04:15:59.804Z,65.17
2022-10-17T04:17:02.811Z,65.22
2022-10-17T04:18:06.580Z,65.27
2022-10-17T04:19:12.569Z,65.41
2022-10-17T04:20:17.483Z,65.49
2022-10-17T04:21:21.128Z,65.56
2022-10-17T04:22:24.192Z,65.74
2022-10-17T04:23:27.953Z,65.75
2022-10-17T04:24:32.768Z,65.73
2022-10-17T04:25:43.540Z,65.77
2022-10-17T04:26:51.579Z,65.92
2022-10-17T04:27:55.119Z,65.92
2022-10-17T04:28:58.246Z,66.16
2022-10-17T04:30:01.242Z,66.19
2022-10-17T04:31:09.439Z,66.21
2022-10-17T04:32:14.685Z,66.34
2022-10-17T04:33:22.325Z,66.34
2022-10-17T04:34:25.232Z,66.23
2022-10-17T04:35:28.395Z,66.28
2022-10-17T04:36:33.203Z,66.27
2022-10-17T04:37:36.463Z,66.36
2022-10-17T04:38:41.665Z,66.26
2022-10-17T04:39:46.049Z,66.21
2022-10-17T04:40:49.103Z,66.22
2022-10-17T04:41:52.229Z,66.18
2022-10-17T04:42:56.491Z,66.16
2022-10-17T04:44:01.136Z,66.16
2022-10-17T04:45:05.490Z,66.28
2022-10-17T04:46:11.941Z,66.18
2022-10-17T04:47:15.248Z,66.16
2022-10-17T04:48:18.635Z,66.20
2022-10-17T04:49:21.782Z,66.20
2022-10-17T04:50:26.633Z,66.18
2022-10-17T04:51:48.020Z,66.26
2022-10-17T04:52:55.598Z,66.22
2022-10-17T04:53:58.669Z,66.24
2022-10-17T04:55:01.725Z,66.35
2022-10-17T04:56:17.136Z,66.26
2022-10-17T04:57:20.327Z,66.25
2022-10-17T04:58:34.180Z,66.34
2022-10-17T04:59:37.220Z,66.23
2022-10-17T05:00:42.317Z,66.28
2022-10-17T05:01:49.845Z,66.26
2022-10-17T05:02:53.954Z,66.26
2022-10-17T05:03:56.973Z,66.28
2022-10-17T05:04:59.998Z,66.29
2022-10-17T05:06:08.553Z,66.37
2022-10-17T05:07:12.489Z,66.24
2022-10-17T05:08:20.119Z,66.19
2022-10-17T05:09:23.116Z,66.27
2022-10-17T05:10:26.340Z,66.17
2022-10-17T05:11:30.306Z,66.14
2022-10-17T05:12:33.381Z,66.19
2022-10-17T05:13:36.473Z,66.17
2022-10-17T05:14:39.568Z,66.10
2022-10-17T05:15:42.498Z,66.03
2022-10-17T05:16:45.677Z,66.01
2022-10-17T05:17:48.852Z,66.10
2022-10-17T05:18:54.771Z,65.97
2022-10-17T05:19:58.496Z,66.06
2022-10-17T05:21:03.941Z,65.99
2022-10-17T05:22:07.173Z,66.00
2022-10-17T05:23:10.142Z,65.98
2022-10-17T05:24:15.666Z,66.10
2022-10-17T05:25:19.472Z,65.97
2022-10-17T05:26:23.134Z,66.04
2022-10-17T05:27:26.480Z,65.96
2022-10-17T05:28:29.574Z,66.02
2022-10-17T05:29:34.859Z,66.04
2022-10-17T05:30:39.935Z,66.07
2022-10-17T05:31:43.387Z,65.99
2022-10-17T05:32:46.663Z,65.97
2022-10-17T05:33:49.746Z,66.06
2022-10-17T05:34:52.781Z,66.00
2022-10-17T05:35:55.999Z,65.97
2022-10-17T05:36:59.064Z,66.02
2022-10-17T05:38:02.050Z,66.02
2022-10-17T05:39:05.254Z,66.02
2022-10-17T05:40:09.867Z,66.01
2022-10-17T05:41:12.999Z,66.08
2022-10-17T05:42:16.078Z,66.04
2022-10-17T05:43:19.291Z,66.06
2022-10-17T05:44:22.479Z,66.03
2022-10-17T05:45:27.300Z,65.97
2022-10-17T05:46:30.481Z,65.97
2022-10-17T05:47:33.582Z,66.03
2022-10-17T05:48:36.737Z,65.94
2022-10-17T05:49:46.299Z,65.95
2022-10-17T05:50:46.025Z,65.98
2022-10-17T05:51:50.893Z,65.91
2022-10-17T05:52:54.820Z,65.89
2022-10-17T05:53:58.156Z,65.91
2022-10-17T05:55:03.642Z,65.90
2022-10-17T05:56:11.029Z,65.85
2022-10-17T05:57:14.221Z,65.84
2022-10-17T05:58:22.088Z,65.86
2022-10-17T05:59:25.063Z,65.89
2022-10-17T06:00:29.970Z,65.76
2022-10-17T06:01:33.100Z,65.85
2022-10-17T06:02:36.140Z,65.74
2022-10-17T06:03:39.156Z,65.69
2022-10-17T06:04:44.194Z,65.66
2022-10-17T06:05:47.387Z,65.70
2022-10-17T06:06:50.578Z,65.55
2022-10-17T06:07:56.012Z,65.63
2022-10-17T06:08:58.902Z,65.70
2022-10-17T06:10:04.233Z,65.60
2022-10-17T06:11:10.018Z,65.59
2022-10-17T06:12:12.475Z,65.60
2022-10-17T06:13:16.545Z,65.71
2022-10-17T06:14:20.186Z,65.64
2022-10-17T06:15:24.920Z,65.65
2022-10-17T06:16:29.992Z,65.56
2022-10-17T06:17:32.972Z,65.58
2022-10-17T06:18:36.080Z,65.61
2022-10-17T06:19:40.799Z,65.65
2022-10-17T06:20:46.094Z,65.67
2022-10-17T06:21:49.837Z,65.67
2022-10-17T06:22:54.783Z,65.65
2022-10-17T06:23:59.782Z,65.63
2022-10-17T06:25:05.266Z,65.65
2022-10-17T06:26:09.000Z,65.67
2022-10-17T06:27:13.279Z,65.68
2022-10-17T06:28:17.290Z,65.75
2022-10-17T06:29:20.623Z,65.67
2022-10-17T06:30:25.743Z,65.72
2022-10-17T06:31:28.905Z,65.72
2022-10-17T06:32:32.474Z,65.78
2022-10-17T06:33:36.112Z,65.70
2022-10-17T06:34:39.817Z,65.73
2022-10-17T06:35:43.047Z,65.85
2022-10-17T06:36:46.267Z,65.79
2022-10-17T06:37:49.407Z,65.84
2022-10-17T06:38:53.587Z,65.80
2022-10-17T06:39:58.663Z,65.78
2022-10-17T06:41:13.059Z,65.78
2022-10-17T06:42:16.466Z,65.82
2022-10-17T06:43:28.150Z,65.86
2022-10-17T06:44:49.481Z,65.73
2022-10-17T06:46:10.846Z,65.84
2022-10-17T06:47:17.842Z,65.79
2022-10-17T06:48:20.273Z,65.68
2022-10-17T06:49:25.272Z,65.64
2022-10-17T06:50:30.149Z,65.59
2022-10-17T06:51:37.792Z,65.66
2022-10-17T06:52:42.646Z,65.53
2022-10-17T06:54:02.785Z,65.55
2022-10-17T06:55:24.224Z,65.60
2022-10-17T06:56:32.007Z,65.59
2022-10-17T06:57:36.918Z,65.58
2022-10-17T06:58:41.715Z,65.62
2022-10-17T06:59:46.586Z,65.41
2022-10-17T07:01:02.842Z,65.45
2022-10-17T07:02:07.889Z,65.41
2022-10-17T07:03:11.407Z,65.49
2022-10-17T07:04:14.672Z,65.50
2022-10-17T07:05:18.708Z,65.34
2022-10-17T07:06:24.122Z,65.31
2022-10-17T07:07:33.116Z,65.26
2022-10-17T07:08:36.546Z,65.30
2022-10-17T07:09:39.742Z,65.23
2022-10-17T07:10:44.135Z,65.31
2022-10-17T07:11:47.377Z,65.19
2022-10-17T07:12:52.544Z,65.14
2022-10-17T07:13:55.645Z,65.17
2022-10-17T07:14:58.769Z,64.99
2022-10-17T07:16:01.874Z,64.98
2022-10-17T07:17:05.669Z,65.03
2022-10-17T07:18:09.704Z,65.04
2022-10-17T07:19:12.828Z,64.91
2022-10-17T07:20:16.486Z,64.83
2022-10-17T07:21:20.471Z,64.78
2022-10-17T07:22:23.653Z,64.87
2022-10-17T07:23:28.959Z,64.74
2022-10-17T07:24:32.056Z,64.67
2022-10-17T07:25:39.340Z,64.61
2022-10-17T07:26:44.982Z,64.57
2022-10-17T07:27:51.350Z,64.49
2022-10-17T07:28:55.093Z,64.48
2022-10-17T07:30:00.014Z,64.43
2022-10-17T07:31:10.988Z,64.38
2022-10-17T07:32:14.830Z,64.43
2022-10-17T07:33:17.986Z,64.44
2022-10-17T07:34:21.429Z,64.34
2022-10-17T07:35:25.067Z,64.29
2022-10-17T07:36:28.579Z,64.26
2022-10-17T07:37:33.187Z,64.08
2022-10-17T07:38:37.173Z,64.07
2022-10-17T07:39:40.404Z,64.02
2022-10-17T07:40:43.578Z,63.98
2022-10-17T07:41:48.878Z,63.90
2022-10-17T07:42:52.127Z,63.81
2022-10-17T07:43:56.112Z,63.76
2022-10-17T07:45:00.899Z,63.71
2022-10-17T07:46:05.377Z,63.72
2022-10-17T07:47:09.128Z,63.79
2022-10-17T07:48:13.086Z,63.68
2022-10-17T07:49:16.145Z,63.62
2022-10-17T07:50:19.787Z,63.68
2022-10-17T07:51:22.799Z,63.50
2022-10-17T07:52:26.050Z,63.49
2022-10-17T07:53:29.241Z,63.44
2022-10-17T07:54:32.283Z,63.40
2022-10-17T07:55:37.359Z,63.38
2022-10-17T07:56:40.480Z,63.31
2022-10-17T07:57:43.343Z,63.29
2022-10-17T07:58:47.628Z,63.34
2022-10-17T07:59:52.590Z,63.20
2022-10-17T08:00:55.634Z,63.23
2022-10-17T08:01:59.167Z,63.05
2022-10-17T08:03:03.223Z,62.99
2022-10-17T08:04:06.118Z,62.95
2022-10-17T08:05:09.107Z,62.90
2022-10-17T08:06:13.107Z,62.80
2022-10-17T08:07:22.940Z,62.72
2022-10-17T08:08:21.109Z,62.64
2022-10-17T08:09:24.067Z,62.59
2022-10-17T08:10:28.778Z,62.62
2022-10-17T08:11:31.881Z,62.58
2022-10-17T08:12:35.374Z,62.42
2022-10-17T08:13:39.971Z,62.36
2022-10-17T08:14:43.412Z,62.28
2022-10-17T08:15:47.390Z,62.33
2022-10-17T08:16:50.408Z,62.21
2022-10-17T08:17:55.144Z,62.15
2022-10-17T08:18:58.131Z,62.09
2022-10-17T08:20:01.448Z,62.03
2022-10-17T08:21:08.788Z,62.02
2022-10-17T08:22:11.933Z,61.98
2022-10-17T08:23:14.920Z,61.96
2022-10-17T08:24:18.146Z,61.92
2022-10-17T08:25:21.550Z,61.86
2022-10-17T08:26:24.719Z,61.79
2022-10-17T08:27:28.383Z,61.72
2022-10-17T08:28:34.598Z,61.75
2022-10-17T08:29:38.466Z,61.60
2022-10-17T08:30:41.486Z,61.50
2022-10-17T08:31:47.743Z,61.36
2022-10-17T08:32:49.704Z,61.31
2022-10-17T08:33:52.617Z,61.24
2022-10-17T08:34:56.135Z,61.19
2022-10-17T08:36:01.301Z,61.21
2022-10-17T08:37:04.397Z,61.05
2022-10-17T08:38:09.051Z,61.02
2022-10-17T08:39:12.118Z,61.02
2022-10-17T08:41:44.681Z,60.89
2022-10-17T08:43:03.001Z,60.84
2022-10-17T08:44:10.005Z,60.75
2022-10-17T08:45:22.651Z,60.61
2022-10-17T08:46:35.126Z,60.55
2022-10-17T08:47:44.448Z,60.45
2022-10-17T08:48:51.039Z,60.38
2022-10-17T08:50:00.565Z,60.27
2022-10-17T08:51:25.276Z,60.26
2022-10-17T08:52:31.730Z,60.08
2022-10-17T08:53:38.204Z,60.02
2022-10-17T08:54:45.496Z,60.00
2022-10-17T08:55:50.758Z,59.94
2022-10-17T08:56:55.328Z,59.90
2022-10-17T08:57:58.354Z,59.73
2022-10-17T08:59:01.484Z,59.64
2022-10-17T09:00:08.222Z,59.57
2022-10-17T09:01:33.421Z,59.54
2022-10-17T09:02:56.190Z,59.44
2022-10-17T09:04:08.160Z,59.38
2022-10-17T09:05:30.096Z,59.32
2022-10-17T09:06:36.965Z,59.19
2022-10-17T09:07:46.600Z,59.19
2022-10-17T09:09:02.044Z,59.15
2022-10-17T09:10:20.914Z,58.95
2022-10-17T09:11:53.169Z,58.88
2022-10-17T09:13:22.237Z,58.95
2022-10-17T09:14:49.702Z,58.80
2022-10-17T09:16:02.406Z,58.70
2022-10-17T09:17:25.292Z,58.61
2022-10-17T09:18:37.741Z,58.64
2022-10-17T09:19:47.175Z,58.52
2022-10-17T09:21:14.947Z,58.42
2022-10-17T09:22:24.386Z,58.31
2022-10-17T09:23:33.907Z,58.30
2022-10-17T09:24:49.181Z,58.26
2022-10-17T09:25:57.662Z,58.16
2022-10-17T09:27:00.988Z,58.22
2022-10-17T09:28:19.967Z,58.12
2022-10-17T09:29:25.287Z,58.05
2022-10-17T09:30:44.555Z,57.97
2022-10-17T09:31:43.857Z,58.00
2022-10-17T09:32:47.258Z,57.89
2022-10-17T09:33:54.648Z,57.80
2022-10-17T09:34:58.393Z,57.84
2022-10-17T09:36:04.250Z,57.78
2022-10-17T09:37:15.940Z,57.70
2022-10-17T09:38:21.429Z,57.70
2022-10-17T09:39:29.749Z,57.60
2022-10-17T09:40:34.653Z,57.45
2022-10-17T09:41:50.079Z,57.42
2022-10-17T09:42:53.398Z,57.34
2022-10-17T09:43:57.872Z,57.22
2022-10-17T09:45:07.231Z,57.11
2022-10-17T09:46:14.049Z,57.17
2022-10-17T09:47:41.467Z,57.12
2022-10-17T09:48:54.012Z,57.08
2022-10-17T09:49:56.906Z,57.08
2022-10-17T09:51:14.565Z,57.01
2022-10-17T09:52:08.339Z,57.01
2022-10-17T09:53:17.754Z,56.94
2022-10-17T09:54:24.097Z,56.86
2022-10-17T09:55:36.547Z,56.66
2022-10-17T09:57:01.279Z,56.59
2022-10-17T09:58:07.309Z,56.54
2022-10-17T09:59:13.811Z,56.47
2022-10-17T10:00:21.239Z,56.49
2022-10-17T10:01:29.249Z,56.42
2022-10-17T10:02:34.191Z,56.40
2022-10-17T10:03:37.115Z,56.34
2022-10-17T10:05:06.855Z,56.23
2022-10-17T10:06:21.243Z,56.22
2022-10-17T10:07:29.351Z,56.20
2022-10-17T10:08:52.774Z,56.15
2022-10-17T10:09:56.813Z,56.02
2022-10-17T10:11:03.899Z,55.96
2022-10-17T10:12:10.571Z,55.86
2022-10-17T10:13:17.127Z,55.83
2022-10-17T10:14:32.954Z,55.76
2022-10-17T10:15:40.217Z,55.77
2022-10-17T10:16:45.153Z,55.68
2022-10-17T10:17:48.146Z,55.60
2022-10-17T10:18:52.186Z,55.63
2022-10-17T10:19:55.522Z,55.55
2022-10-17T10:21:13.913Z,55.49
2022-10-17T10:22:19.112Z,55.47
2022-10-17T10:23:23.742Z,55.27
2022-10-17T10:24:30.841Z,55.24
2022-10-17T10:25:32.415Z,55.11
2022-10-17T10:26:41.760Z,55.07
2022-10-17T10:27:46.468Z,55.04
2022-10-17T10:28:53.519Z,54.97
2022-10-17T10:29:56.332Z,54.90
2022-10-17T10:31:04.152Z,54.86
2022-10-17T10:32:13.985Z,54.74
2022-10-17T10:33:20.185Z,54.68
2022-10-17T10:34:28.927Z,54.60
2022-10-17T10:35:35.121Z,54.52
2022-10-17T10:36:44.709Z,54.56
2022-10-17T10:37:51.466Z,54.39
2022-10-17T10:38:59.200Z,54.22
2022-10-17T10:40:18.096Z,54.08
2022-10-17T10:41:21.312Z,54.08
2022-10-17T10:42:36.428Z,54.06
2022-10-17T10:43:45.699Z,54.01
2022-10-17T10:44:50.311Z,53.95
2022-10-17T10:45:53.369Z,53.83
2022-10-17T10:47:11.084Z,53.71
2022-10-17T10:48:23.660Z,53.63
2022-10-17T10:49:31.363Z,53.72
2022-10-17T10:50:45.427Z,53.61
2022-10-17T10:51:49.401Z,53.59
2022-10-17T10:53:17.240Z,53.59
2022-10-17T10:54:24.655Z,53.51
2022-10-17T10:55:31.321Z,53.43
2022-10-17T10:56:51.286Z,53.36
2022-10-17T10:57:57.418Z,53.35
2022-10-17T10:59:03.782Z,53.27
2022-10-17T11:00:16.551Z,53.16
2022-10-17T11:01:26.998Z,53.04
2022-10-17T11:02:45.708Z,52.88
2022-10-17T11:03:54.882Z,52.84
2022-10-17T11:05:04.823Z,52.70
2022-10-17T11:06:23.627Z,52.67
2022-10-17T11:07:55.591Z,52.65
2022-10-17T11:09:13.907Z,52.47
2022-10-17T11:10:50.776Z,52.36
2022-10-17T11:11:57.316Z,52.30
2022-10-17T11:13:13.090Z,52.21
2022-10-17T11:14:36.060Z,52.19
2022-10-17T11:15:51.594Z,52.13
2022-10-17T11:16:58.105Z,52.12
2022-10-17T11:18:10.432Z,51.99
2022-10-17T11:19:28.787Z,51.95
2022-10-17T11:20:51.996Z,52.00
2022-10-17T11:21:58.328Z,51.87
2022-10-17T11:23:23.480Z,51.87
2022-10-17T11:24:42.054Z,51.74
2022-10-17T11:25:46.371Z,51.62
2022-10-17T11:26:55.786Z,51.63
2022-10-17T11:28:03.691Z,51.48
2022-10-17T11:29:06.933Z,51.34
2022-10-17T11:30:15.880Z,51.32
2022-10-17T11:31:21.443Z,51.25
2022-10-17T11:32:40.052Z,51.23
2022-10-17T11:33:52.621Z,51.29
2022-10-17T11:34:59.203Z,51.15
2022-10-17T11:36:05.843Z,51.06
2022-10-17T11:37:21.361Z,51.12
2022-10-17T11:38:47.170Z,50.99
2022-10-17T11:39:56.554Z,50.91
2022-10-17T11:41:00.134Z,50.95
2022-10-17T11:42:12.516Z,50.91
2022-10-17T11:43:18.928Z,50.82
2022-10-17T11:44:28.332Z,50.82
2022-10-17T11:45:34.851Z,50.77
2022-10-17T11:46:41.429Z,50.81
2022-10-17T11:47:53.783Z,50.79
2022-10-17T11:49:03.226Z,50.60
2022-10-17T11:53:59.652Z,50.59
2022-10-17T11:55:06.953Z,50.52
2022-10-17T11:56:11.824Z,50.54
2022-10-17T11:57:54.415Z,50.44
2022-10-17T11:59:04.269Z,50.29
2022-10-17T12:00:25.776Z,50.21
2022-10-17T12:01:38.289Z,50.17
2022-10-17T12:02:47.486Z,50.06
2022-10-17T12:04:15.383Z,50.10
2022-10-17T12:05:33.742Z,50.03
2022-10-17T12:07:01.465Z,49.86
2022-10-17T12:08:14.020Z,49.75
2022-10-17T12:09:36.585Z,49.85
2022-10-17T12:10:52.200Z,49.80
2022-10-17T12:11:57.416Z,49.73
2022-10-17T12:13:29.793Z,49.69
2022-10-17T12:14:46.439Z,49.75
2022-10-17T12:15:49.740Z,49.67
2022-10-17T12:16:53.372Z,49.63
2022-10-17T12:18:02.632Z,49.62
2022-10-17T12:19:23.985Z,49.58
2022-10-17T12:20:30.206Z,49.57
2022-10-17T12:21:56.469Z,49.48
2022-10-17T12:23:05.698Z,49.45
2022-10-17T12:24:16.763Z,49.48
2022-10-17T12:25:29.456Z,49.48
2022-10-17T12:26:32.629Z,49.53
2022-10-17T12:27:46.923Z,49.48
2022-10-17T12:28:49.973Z,49.50
2022-10-17T12:29:56.725Z,49.42
2022-10-17T12:31:13.153Z,49.47
2022-10-17T12:32:16.328Z,49.41
2022-10-17T12:33:31.787Z,49.29
2022-10-17T12:34:34.808Z,49.37
2022-10-17T12:35:38.771Z,49.20
2022-10-17T12:36:41.931Z,49.14
2022-10-17T12:37:51.267Z,49.03
2022-10-17T12:39:08.761Z,48.91
2022-10-17T12:40:38.418Z,48.87
2022-10-17T12:41:45.991Z,48.84
2022-10-17T12:42:49.895Z,48.85
2022-10-17T12:43:54.395Z,48.79
2022-10-17T12:44:57.380Z,48.79
2022-10-17T12:46:02.151Z,48.82
2022-10-17T12:47:09.210Z,48.79
2022-10-17T12:48:12.317Z,48.77
2022-10-17T12:49:26.550Z,48.72
2022-10-17T12:50:52.721Z,48.66
2022-10-17T12:52:17.455Z,48.63
2022-10-17T12:53:24.108Z,48.55
2022-10-17T12:54:29.735Z,48.44
2022-10-17T12:55:33.170Z,48.46
2022-10-17T12:56:39.682Z,48.38
2022-10-17T12:58:05.037Z,48.40
2022-10-17T12:59:18.504Z,48.27
2022-10-17T13:00:36.668Z,48.23
2022-10-17T13:01:42.034Z,48.26
2022-10-17T13:02:46.865Z,48.22
2022-10-17T13:03:51.908Z,48.21
2022-10-17T13:05:01.032Z,48.25
2022-10-17T13:06:07.093Z,48.20
2022-10-17T13:07:21.707Z,48.16
2022-10-17T13:08:30.826Z,48.28
2022-10-17T13:09:37.372Z,48.18
2022-10-17T13:10:43.234Z,48.07
2022-10-17T13:11:45.947Z,48.01
2022-10-17T13:12:50.623Z,48.03
2022-10-17T13:13:55.709Z,48.07
2022-10-17T13:14:59.709Z,48.03
2022-10-17T13:16:03.341Z,47.95
2022-10-17T13:17:09.280Z,47.97
2022-10-17T13:18:15.848Z,47.99
2022-10-17T13:19:23.044Z,47.96
2022-10-17T13:20:31.287Z,47.85
2022-10-17T13:21:33.342Z,47.90
2022-10-17T13:22:39.741Z,47.95
2022-10-17T13:23:43.127Z,47.92
2022-10-17T13:24:48.349Z,47.95
2022-10-17T13:26:14.992Z,47.85
2022-10-17T13:27:27.433Z,47.94
2022-10-17T13:28:30.572Z,47.93
2022-10-17T13:29:33.708Z,47.99
2022-10-17T13:30:37.043Z,47.95
2022-10-17T13:31:42.680Z,47.94
2022-10-17T13:32:45.550Z,47.92
2022-10-17T13:33:48.415Z,48.00
2022-10-17T13:35:10.205Z,48.02
2022-10-17T13:36:19.137Z,48.03
2022-10-17T13:37:22.122Z,48.08
2022-10-17T13:38:28.603Z,48.22
2022-10-17T13:39:52.792Z,48.28
2022-10-17T13:40:50.007Z,48.25
2022-10-17T13:41:49.477Z,48.30
2022-10-17T13:42:55.561Z,48.41
2022-10-17T13:43:58.973Z,48.42
2022-10-17T13:45:02.342Z,48.41
2022-10-17T13:46:25.551Z,48.47
2022-10-17T13:47:23.299Z,48.42
2022-10-17T13:48:27.982Z,48.33
2022-10-17T13:49:37.405Z,48.41
2022-10-17T13:50:45.228Z,48.34
2022-10-17T13:51:49.608Z,48.25
2022-10-17T13:53:15.927Z,48.30
2022-10-17T13:54:34.200Z,48.21
2022-10-17T13:55:37.330Z,48.25
2022-10-17T13:56:40.626Z,48.16
2022-10-17T13:57:43.703Z,48.18
2022-10-17T13:58:52.901Z,48.27
2022-10-17T13:59:58.695Z,48.24
2022-10-17T14:01:02.690Z,48.21
2022-10-17T14:02:09.844Z,48.18
2022-10-17T14:03:13.547Z,48.17
2022-10-17T14:04:20.119Z,48.24
2022-10-17T14:05:23.214Z,48.28
2022-10-17T14:06:28.847Z,48.24
2022-10-17T14:08:09.261Z,48.33
2022-10-17T14:08:56.371Z,48.34
2022-10-17T14:09:59.879Z,48.34
2022-10-17T14:11:04.917Z,48.46
2022-10-17T14:12:12.279Z,48.56
2022-10-17T14:13:24.496Z,48.57
2022-10-17T14:14:29.126Z,48.54
2022-10-17T14:15:35.179Z,48.60
2022-10-17T14:16:43.109Z,48.65
2022-10-17T14:17:46.553Z,48.69
2022-10-17T14:18:51.621Z,48.76
2022-10-17T14:20:34.481Z,48.84
2022-10-17T14:22:26.836Z,48.96
2022-10-17T14:23:33.193Z,49.05
2022-10-17T14:24:36.623Z,49.17
2022-10-17T14:25:40.729Z,49.11
2022-10-17T14:26:53.156Z,49.16
2022-10-17T14:28:15.269Z,49.25
2022-10-17T14:29:21.776Z,49.35
2022-10-17T14:30:55.199Z,49.50
2022-10-17T14:31:39.793Z,49.47
2022-10-17T14:32:43.113Z,49.57
2022-10-17T14:33:50.671Z,49.64
2022-10-17T14:35:05.580Z,49.83
2022-10-17T14:36:03.095Z,49.95
2022-10-17T14:37:14.812Z,50.16
2022-10-17T14:38:18.986Z,50.37
2022-10-17T14:39:26.810Z,50.51
2022-10-17T14:40:31.924Z,50.65
2022-10-17T14:41:42.931Z,50.78
2022-10-17T14:42:43.066Z,50.91